Adak, AK

6:44 PM HAST on December 27, 2014 (GMT -1000)
Atka | Change Station
CLOSE
Current Station
Airport
Location: Atka,
Elevation: 56 ft
Nearby Weather Stations

Elev 56 ft 52.22 °N, 174.21 °W | Updated 8 minutes ago

Mostly Cloudy
Mostly Cloudy
37 °F
Feels Like 29 °F
N
13
Wind Variable Wind from East

Today
High -- | Low -- °F
--% Chance of Precip.
Yesterday
High -- | Low -- °F
Precip. -- in
9:54 AM 5:41 PM
Waxing Crescent, 43% visible
Pressure 29.39 in
Visibility 10.0 miles
Clouds Mostly Cloudy 2200 ft
Mostly Cloudy 3000 ft
Windchill 29 °F
Dew Point 32 °F
Humidity 81%
Rainfall 0.00 in
Snow Depth Not available.
UV 0 out of 12
Pollen Not available.
Air Quality Not available.
Flu Activity Not available.
METAR PAAK 280436Z 08011KT 10SM BKN022 BKN030 03/00 A2939 RMK AO1

More Conditions Fewer Conditions

Pressure 29.39 in
Visibility 10.0 miles
Clouds Mostly Cloudy 2200 ft
Mostly Cloudy 3000 ft
Windchill 29 °F
Dew Point 32 °F
Humidity 81%
Rainfall 0.00 in
Snow Depth Not available.
UV 0 out of 12
Pollen Not available.
Air Quality Not available.
Flu Activity Not available.
METAR PAAK 280436Z 08011KT 10SM BKN022 BKN030 03/00 A2939 RMK AO1

More Conditions Fewer Conditions

10-Day Weather Forecast

Almanac

Astronomy

Dec. 27, 2014 Rise Set
Actual Time
Civil Twilight
Nautical Twilight
Astronomical Twilight
Moon
Length of Visible Light
Length of Day
Tomorrow will be .
, % of the Moon is Illuminated

Today's Extremes

State Highs State Lows

Community

WunderPhotos

Upload Photos

1,781,196 photos uploaded!

WunderBlogs® & News

Nearby

Air Quality

  Air Quality AQ Index Pollutant
Not available.

Snow Depth

Station Depth Elevation

Earthquake Activity

City Distance Mag. Time & Date
Minimum magnitude displayed is 2.5.

Coastal Water Temperatures

Place Temperature

Nearby Weather Stations